Samnorwood, Texas
Current Conditions -  °F | °C
As of 5:53 PM on Sunday 21 Dec 2014 (Local Time) from KCDS Reporting Station
Clear Clear  
Wind Chill: 58°   Ceiling: Unl
Heat Index: 58°   Visibility: 10mi
Dew Point: 33°   Wind: 8mph
Humidity: 39%   Direction: 200°SSW
Pressure: 29.63"   Gusts: NA
Location:  35.05°N, 100.28°W
Report Text: KCDS 212353Z AUTO 20007KT 10SM CLR 14/01 A2963 RMK AO2 SLP027 T01440006 10189 20133 56015
Loading
Personal Weather Stations






























Interactive Weather Map New forecast layout! Learn more

10-Day Weather Forecast

Advertisements
Track Severe Weather on mobile